sensor_id;sensor_type;location;lat;lon;timestamp;P1;durP1;ratioP1;P2;durP2;ratioP2
4700;SDS011;8724;51.272;6.554;2023-03-18T00:01:58;3.90;;;2.00;;
4700;SDS011;8724;51.272;6.554;2023-03-18T00:04:28;3.37;;;2.00;;
4700;SDS011;8724;51.272;6.554;2023-03-18T00:06:57;3.80;;;2.50;;
4700;SDS011;8724;51.272;6.554;2023-03-18T00:09:25;2.83;;;1.97;;
4700;SDS011;8724;51.272;6.554;2023-03-18T00:11:54;3.67;;;2.50;;
4700;SDS011;8724;51.272;6.554;2023-03-18T00:14:22;4.60;;;2.70;;
4700;SDS011;8724;51.272;6.554;2023-03-18T00:16:51;3.00;;;2.70;;
4700;SDS011;8724;51.272;6.554;2023-03-18T00:19:20;4.10;;;2.93;;
4700;SDS011;8724;51.272;6.554;2023-03-18T00:21:51;3.93;;;2.77;;
4700;SDS011;8724;51.272;6.554;2023-03-18T00:24:19;2.70;;;2.50;;
4700;SDS011;8724;51.272;6.554;2023-03-18T00:26:48;2.97;;;2.67;;
4700;SDS011;8724;51.272;6.554;2023-03-18T00:29:17;4.40;;;2.43;;
4700;SDS011;8724;51.272;6.554;2023-03-18T00:31:45;4.30;;;2.50;;
4700;SDS011;8724;51.272;6.554;2023-03-18T00:34:14;4.03;;;2.60;;
4700;SDS011;8724;51.272;6.554;2023-03-18T00:36:42;4.13;;;2.80;;
4700;SDS011;8724;51.272;6.554;2023-03-18T00:39:15;3.50;;;2.80;;
4700;SDS011;8724;51.272;6.554;2023-03-18T00:41:47;4.37;;;2.80;;
4700;SDS011;8724;51.272;6.554;2023-03-18T00:44:18;4.07;;;2.50;;
4700;SDS011;8724;51.272;6.554;2023-03-18T00:46:46;2.80;;;2.47;;
4700;SDS011;8724;51.272;6.554;2023-03-18T00:49:15;3.47;;;2.37;;
4700;SDS011;8724;51.272;6.554;2023-03-18T00:51:44;4.87;;;1.90;;
4700;SDS011;8724;51.272;6.554;2023-03-18T00:54:13;2.80;;;2.30;;
4700;SDS011;8724;51.272;6.554;2023-03-18T00:56:47;2.90;;;2.50;;
4700;SDS011;8724;51.272;6.554;2023-03-18T00:59:16;2.80;;;2.50;;
4700;SDS011;8724;51.272;6.554;2023-03-18T01:01:44;4.70;;;2.40;;
4700;SDS011;8724;51.272;6.554;2023-03-18T01:04:14;7.60;;;2.97;;
4700;SDS011;8724;51.272;6.554;2023-03-18T01:06:43;5.37;;;2.80;;
4700;SDS011;8724;51.272;6.554;2023-03-18T01:09:12;4.53;;;2.37;;
4700;SDS011;8724;51.272;6.554;2023-03-18T01:11:43;6.40;;;2.20;;
4700;SDS011;8724;51.272;6.554;2023-03-18T01:14:11;4.47;;;2.70;;
4700;SDS011;8724;51.272;6.554;2023-03-18T01:16:40;3.37;;;3.07;;
4700;SDS011;8724;51.272;6.554;2023-03-18T01:19:08;3.60;;;2.30;;
4700;SDS011;8724;51.272;6.554;2023-03-18T01:21:37;5.17;;;2.30;;
4700;SDS011;8724;51.272;6.554;2023-03-18T01:24:05;3.17;;;2.23;;
4700;SDS011;8724;51.272;6.554;2023-03-18T01:26:35;5.37;;;2.30;;
4700;SDS011;8724;51.272;6.554;2023-03-18T01:29:05;2.83;;;2.63;;
4700;SDS011;8724;51.272;6.554;2023-03-18T01:31:33;2.33;;;2.13;;
4700;SDS011;8724;51.272;6.554;2023-03-18T01:34:07;5.83;;;3.20;;
4700;SDS011;8724;51.272;6.554;2023-03-18T01:36:56;4.20;;;2.40;;
4700;SDS011;8724;51.272;6.554;2023-03-18T01:39:27;4.23;;;2.40;;
4700;SDS011;8724;51.272;6.554;2023-03-18T01:41:56;2.83;;;2.23;;
4700;SDS011;8724;51.272;6.554;2023-03-18T01:44:30;3.33;;;2.10;;
4700;SDS011;8724;51.272;6.554;2023-03-18T01:47:01;2.50;;;2.30;;
4700;SDS011;8724;51.272;6.554;2023-03-18T01:49:32;4.60;;;2.57;;
4700;SDS011;8724;51.272;6.554;2023-03-18T01:52:04;2.00;;;1.80;;
4700;SDS011;8724;51.272;6.554;2023-03-18T01:54:37;5.90;;;2.60;;
4700;SDS011;8724;51.272;6.554;2023-03-18T01:57:13;4.43;;;1.90;;
4700;SDS011;8724;51.272;6.554;2023-03-18T01:59:45;5.57;;;2.10;;
4700;SDS011;8724;51.272;6.554;2023-03-18T02:02:16;5.43;;;2.60;;
4700;SDS011;8724;51.272;6.554;2023-03-18T02:04:47;3.00;;;2.27;;
4700;SDS011;8724;51.272;6.554;2023-03-18T02:07:18;7.43;;;2.53;;
4700;SDS011;8724;51.272;6.554;2023-03-18T02:09:48;3.60;;;2.50;;
4700;SDS011;8724;51.272;6.554;2023-03-18T02:12:20;3.40;;;2.37;;
4700;SDS011;8724;51.272;6.554;2023-03-18T02:14:58;5.00;;;2.67;;
4700;SDS011;8724;51.272;6.554;2023-03-18T02:17:29;11.57;;;3.00;;
4700;SDS011;8724;51.272;6.554;2023-03-18T02:20:09;4.13;;;2.93;;
4700;SDS011;8724;51.272;6.554;2023-03-18T02:22:52;3.60;;;2.80;;
4700;SDS011;8724;51.272;6.554;2023-03-18T02:25:30;5.30;;;2.67;;
4700;SDS011;8724;51.272;6.554;2023-03-18T02:28:06;5.80;;;3.03;;
4700;SDS011;8724;51.272;6.554;2023-03-18T02:30:40;3.90;;;2.90;;
4700;SDS011;8724;51.272;6.554;2023-03-18T02:33:13;3.07;;;2.80;;
4700;SDS011;8724;51.272;6.554;2023-03-18T02:35:43;2.70;;;2.40;;
4700;SDS011;8724;51.272;6.554;2023-03-18T02:38:14;3.73;;;2.70;;
4700;SDS011;8724;51.272;6.554;2023-03-18T02:40:43;5.10;;;3.20;;
4700;SDS011;8724;51.272;6.554;2023-03-18T02:43:22;4.17;;;3.20;;
4700;SDS011;8724;51.272;6.554;2023-03-18T02:46:10;4.00;;;2.17;;
4700;SDS011;8724;51.272;6.554;2023-03-18T02:48:44;6.83;;;3.00;;
4700;SDS011;8724;51.272;6.554;2023-03-18T02:51:14;4.10;;;2.87;;
4700;SDS011;8724;51.272;6.554;2023-03-18T02:53:44;7.40;;;3.17;;
4700;SDS011;8724;51.272;6.554;2023-03-18T02:56:14;5.33;;;2.87;;
4700;SDS011;8724;51.272;6.554;2023-03-18T02:58:44;6.83;;;3.23;;
4700;SDS011;8724;51.272;6.554;2023-03-18T03:01:15;5.83;;;2.57;;
4700;SDS011;8724;51.272;6.554;2023-03-18T03:03:43;7.23;;;3.57;;
4700;SDS011;8724;51.272;6.554;2023-03-18T03:06:12;5.83;;;2.77;;
4700;SDS011;8724;51.272;6.554;2023-03-18T03:08:40;3.77;;;2.90;;
4700;SDS011;8724;51.272;6.554;2023-03-18T03:11:09;2.93;;;2.60;;
4700;SDS011;8724;51.272;6.554;2023-03-18T03:13:37;4.33;;;3.13;;
4700;SDS011;8724;51.272;6.554;2023-03-18T03:16:11;6.90;;;3.23;;
4700;SDS011;8724;51.272;6.554;2023-03-18T03:18:40;8.73;;;3.03;;
4700;SDS011;8724;51.272;6.554;2023-03-18T03:21:08;3.50;;;3.07;;
4700;SDS011;8724;51.272;6.554;2023-03-18T03:23:38;7.67;;;3.27;;
4700;SDS011;8724;51.272;6.554;2023-03-18T03:26:08;6.47;;;2.90;;
4700;SDS011;8724;51.272;6.554;2023-03-18T03:28:37;4.90;;;2.80;;
4700;SDS011;8724;51.272;6.554;2023-03-18T03:31:05;4.47;;;2.60;;
4700;SDS011;8724;51.272;6.554;2023-03-18T03:33:35;4.90;;;2.93;;
4700;SDS011;8724;51.272;6.554;2023-03-18T03:36:07;6.30;;;2.70;;
4700;SDS011;8724;51.272;6.554;2023-03-18T03:38:36;4.87;;;3.10;;
4700;SDS011;8724;51.272;6.554;2023-03-18T03:41:05;5.00;;;3.20;;
4700;SDS011;8724;51.272;6.554;2023-03-18T03:43:36;7.73;;;3.23;;
4700;SDS011;8724;51.272;6.554;2023-03-18T03:46:04;4.80;;;2.90;;
4700;SDS011;8724;51.272;6.554;2023-03-18T03:48:36;4.87;;;2.60;;
4700;SDS011;8724;51.272;6.554;2023-03-18T03:51:10;2.87;;;2.17;;
4700;SDS011;8724;51.272;6.554;2023-03-18T03:53:38;3.53;;;3.23;;
4700;SDS011;8724;51.272;6.554;2023-03-18T03:56:07;3.27;;;2.27;;
4700;SDS011;8724;51.272;6.554;2023-03-18T03:58:37;7.30;;;2.43;;
4700;SDS011;8724;51.272;6.554;2023-03-18T04:01:05;6.20;;;2.97;;
4700;SDS011;8724;51.272;6.554;2023-03-18T04:03:34;2.80;;;2.43;;
4700;SDS011;8724;51.272;6.554;2023-03-18T04:06:06;8.23;;;2.87;;
4700;SDS011;8724;51.272;6.554;2023-03-18T04:08:43;3.50;;;3.20;;
4700;SDS011;8724;51.272;6.554;2023-03-18T04:11:11;2.70;;;2.50;;
4700;SDS011;8724;51.272;6.554;2023-03-18T04:13:41;6.60;;;3.27;;
4700;SDS011;8724;51.272;6.554;2023-03-18T04:16:10;4.47;;;3.10;;
4700;SDS011;8724;51.272;6.554;2023-03-18T04:18:38;6.43;;;3.17;;
4700;SDS011;8724;51.272;6.554;2023-03-18T04:21:09;8.07;;;3.70;;
4700;SDS011;8724;51.272;6.554;2023-03-18T04:23:56;7.60;;;3.07;;
4700;SDS011;8724;51.272;6.554;2023-03-18T04:26:25;3.40;;;2.63;;
4700;SDS011;8724;51.272;6.554;2023-03-18T04:28:57;4.90;;;2.63;;
4700;SDS011;8724;51.272;6.554;2023-03-18T04:31:25;3.20;;;2.93;;
4700;SDS011;8724;51.272;6.554;2023-03-18T04:33:57;2.97;;;2.30;;
4700;SDS011;8724;51.272;6.554;2023-03-18T04:36:27;6.90;;;3.90;;
4700;SDS011;8724;51.272;6.554;2023-03-18T04:38:56;5.10;;;3.00;;
4700;SDS011;8724;51.272;6.554;2023-03-18T04:41:25;3.30;;;2.57;;
4700;SDS011;8724;51.272;6.554;2023-03-18T04:43:56;4.90;;;2.87;;
4700;SDS011;8724;51.272;6.554;2023-03-18T04:46:35;5.97;;;3.03;;
4700;SDS011;8724;51.272;6.554;2023-03-18T04:49:04;30.40;;;18.93;;
4700;SDS011;8724;51.272;6.554;2023-03-18T04:51:34;68.50;;;46.20;;
4700;SDS011;8724;51.272;6.554;2023-03-18T04:54:04;57.90;;;42.40;;
4700;SDS011;8724;51.272;6.554;2023-03-18T04:56:33;49.13;;;37.67;;
4700;SDS011;8724;51.272;6.554;2023-03-18T04:59:01;30.83;;;25.47;;
4700;SDS011;8724;51.272;6.554;2023-03-18T05:01:32;22.03;;;16.60;;
4700;SDS011;8724;51.272;6.554;2023-03-18T05:04:00;14.73;;;9.70;;
4700;SDS011;8724;51.272;6.554;2023-03-18T05:06:40;8.30;;;6.50;;
4700;SDS011;8724;51.272;6.554;2023-03-18T05:09:11;5.23;;;4.53;;
4700;SDS011;8724;51.272;6.554;2023-03-18T05:11:41;4.83;;;3.50;;
4700;SDS011;8724;51.272;6.554;2023-03-18T05:14:22;5.43;;;3.50;;
4700;SDS011;8724;51.272;6.554;2023-03-18T05:16:51;3.57;;;2.77;;
4700;SDS011;8724;51.272;6.554;2023-03-18T05:19:20;3.40;;;2.90;;
4700;SDS011;8724;51.272;6.554;2023-03-18T05:21:59;4.00;;;3.20;;
4700;SDS011;8724;51.272;6.554;2023-03-18T05:24:28;4.17;;;2.77;;
4700;SDS011;8724;51.272;6.554;2023-03-18T05:27:02;6.10;;;3.23;;
4700;SDS011;8724;51.272;6.554;2023-03-18T05:29:36;3.53;;;2.90;;
4700;SDS011;8724;51.272;6.554;2023-03-18T05:32:12;3.80;;;2.73;;
4700;SDS011;8724;51.272;6.554;2023-03-18T05:34:43;5.73;;;3.00;;
4700;SDS011;8724;51.272;6.554;2023-03-18T05:37:14;3.43;;;2.60;;
4700;SDS011;8724;51.272;6.554;2023-03-18T05:39:54;3.33;;;2.60;;
4700;SDS011;8724;51.272;6.554;2023-03-18T05:42:23;4.17;;;2.50;;
4700;SDS011;8724;51.272;6.554;2023-03-18T05:44:53;2.97;;;2.20;;
4700;SDS011;8724;51.272;6.554;2023-03-18T05:47:24;2.80;;;2.30;;
4700;SDS011;8724;51.272;6.554;2023-03-18T05:50:04;5.83;;;2.90;;
4700;SDS011;8724;51.272;6.554;2023-03-18T05:52:36;3.17;;;2.80;;
4700;SDS011;8724;51.272;6.554;2023-03-18T05:55:14;3.97;;;2.50;;
4700;SDS011;8724;51.272;6.554;2023-03-18T05:57:43;3.33;;;2.27;;
4700;SDS011;8724;51.272;6.554;2023-03-18T06:00:12;3.13;;;2.50;;
4700;SDS011;8724;51.272;6.554;2023-03-18T06:02:47;4.63;;;2.50;;
4700;SDS011;8724;51.272;6.554;2023-03-18T06:05:17;6.90;;;2.60;;
4700;SDS011;8724;51.272;6.554;2023-03-18T06:07:48;17.70;;;12.07;;
4700;SDS011;8724;51.272;6.554;2023-03-18T06:10:17;29.30;;;20.90;;
4700;SDS011;8724;51.272;6.554;2023-03-18T06:12:47;15.40;;;11.40;;
4700;SDS011;8724;51.272;6.554;2023-03-18T06:15:16;11.50;;;7.87;;
4700;SDS011;8724;51.272;6.554;2023-03-18T06:17:47;9.40;;;5.97;;
4700;SDS011;8724;51.272;6.554;2023-03-18T06:20:16;9.63;;;3.70;;
4700;SDS011;8724;51.272;6.554;2023-03-18T06:22:46;3.73;;;3.00;;
4700;SDS011;8724;51.272;6.554;2023-03-18T06:25:18;6.83;;;3.13;;
4700;SDS011;8724;51.272;6.554;2023-03-18T06:27:49;4.23;;;3.43;;
4700;SDS011;8724;51.272;6.554;2023-03-18T06:30:22;7.83;;;2.83;;
4700;SDS011;8724;51.272;6.554;2023-03-18T06:32:50;3.57;;;3.00;;
4700;SDS011;8724;51.272;6.554;2023-03-18T06:35:23;3.90;;;2.93;;
4700;SDS011;8724;51.272;6.554;2023-03-18T06:37:52;3.20;;;2.90;;
4700;SDS011;8724;51.272;6.554;2023-03-18T06:40:23;3.63;;;3.30;;
4700;SDS011;8724;51.272;6.554;2023-03-18T06:42:53;4.20;;;2.67;;
4700;SDS011;8724;51.272;6.554;2023-03-18T06:45:34;5.00;;;2.80;;
4700;SDS011;8724;51.272;6.554;2023-03-18T06:48:05;4.27;;;2.80;;
4700;SDS011;8724;51.272;6.554;2023-03-18T06:50:36;3.87;;;3.03;;
4700;SDS011;8724;51.272;6.554;2023-03-18T06:53:11;3.77;;;2.67;;
4700;SDS011;8724;51.272;6.554;2023-03-18T06:55:42;2.80;;;2.43;;
4700;SDS011;8724;51.272;6.554;2023-03-18T06:58:10;3.30;;;2.80;;
4700;SDS011;8724;51.272;6.554;2023-03-18T07:00:46;28.43;;;20.70;;
4700;SDS011;8724;51.272;6.554;2023-03-18T07:03:20;28.27;;;20.20;;
4700;SDS011;8724;51.272;6.554;2023-03-18T07:05:50;19.07;;;13.43;;
4700;SDS011;8724;51.272;6.554;2023-03-18T07:08:20;11.87;;;9.07;;
4700;SDS011;8724;51.272;6.554;2023-03-18T07:10:51;8.50;;;6.50;;
4700;SDS011;8724;51.272;6.554;2023-03-18T07:13:24;9.60;;;4.97;;
4700;SDS011;8724;51.272;6.554;2023-03-18T07:15:52;4.20;;;3.80;;
4700;SDS011;8724;51.272;6.554;2023-03-18T07:18:23;4.07;;;3.67;;
4700;SDS011;8724;51.272;6.554;2023-03-18T07:20:51;4.30;;;2.93;;
4700;SDS011;8724;51.272;6.554;2023-03-18T07:23:22;3.57;;;2.70;;
4700;SDS011;8724;51.272;6.554;2023-03-18T07:25:52;3.67;;;2.83;;
4700;SDS011;8724;51.272;6.554;2023-03-18T07:28:20;3.80;;;2.13;;
4700;SDS011;8724;51.272;6.554;2023-03-18T07:30:52;4.30;;;2.90;;
4700;SDS011;8724;51.272;6.554;2023-03-18T07:33:20;2.60;;;2.37;;
4700;SDS011;8724;51.272;6.554;2023-03-18T07:35:49;3.20;;;2.80;;
4700;SDS011;8724;51.272;6.554;2023-03-18T07:38:18;2.50;;;2.30;;
4700;SDS011;8724;51.272;6.554;2023-03-18T07:40:46;2.47;;;2.27;;
4700;SDS011;8724;51.272;6.554;2023-03-18T07:43:16;3.37;;;3.07;;
4700;SDS011;8724;51.272;6.554;2023-03-18T07:45:44;36.10;;;26.03;;
4700;SDS011;8724;51.272;6.554;2023-03-18T07:48:13;40.77;;;29.60;;
4700;SDS011;8724;51.272;6.554;2023-03-18T07:50:44;30.10;;;22.40;;
4700;SDS011;8724;51.272;6.554;2023-03-18T07:53:12;20.67;;;15.30;;
4700;SDS011;8724;51.272;6.554;2023-03-18T07:55:42;15.80;;;11.23;;
4700;SDS011;8724;51.272;6.554;2023-03-18T07:58:11;9.37;;;7.37;;
4700;SDS011;8724;51.272;6.554;2023-03-18T08:00:42;6.57;;;5.23;;
4700;SDS011;8724;51.272;6.554;2023-03-18T08:03:11;4.80;;;4.33;;
4700;SDS011;8724;51.272;6.554;2023-03-18T08:05:44;4.90;;;3.50;;
4700;SDS011;8724;51.272;6.554;2023-03-18T08:08:12;4.53;;;3.37;;
4700;SDS011;8724;51.272;6.554;2023-03-18T08:10:41;4.60;;;3.00;;
4700;SDS011;8724;51.272;6.554;2023-03-18T08:13:09;4.07;;;2.97;;
4700;SDS011;8724;51.272;6.554;2023-03-18T08:15:38;4.67;;;3.23;;
4700;SDS011;8724;51.272;6.554;2023-03-18T08:18:08;4.47;;;2.93;;
4700;SDS011;8724;51.272;6.554;2023-03-18T08:20:36;3.70;;;2.73;;
4700;SDS011;8724;51.272;6.554;2023-03-18T08:23:05;4.00;;;2.67;;
4700;SDS011;8724;51.272;6.554;2023-03-18T08:25:33;2.70;;;2.07;;
4700;SDS011;8724;51.272;6.554;2023-03-18T08:28:02;4.87;;;2.80;;
4700;SDS011;8724;51.272;6.554;2023-03-18T08:30:37;5.00;;;3.07;;
4700;SDS011;8724;51.272;6.554;2023-03-18T08:33:06;6.73;;;5.40;;
4700;SDS011;8724;51.272;6.554;2023-03-18T08:35:37;31.43;;;22.97;;
4700;SDS011;8724;51.272;6.554;2023-03-18T08:38:07;26.83;;;21.33;;
4700;SDS011;8724;51.272;6.554;2023-03-18T08:40:36;20.27;;;15.27;;
4700;SDS011;8724;51.272;6.554;2023-03-18T08:43:07;16.20;;;12.37;;
4700;SDS011;8724;51.272;6.554;2023-03-18T08:45:35;12.90;;;10.37;;
4700;SDS011;8724;51.272;6.554;2023-03-18T08:48:04;9.67;;;7.50;;
4700;SDS011;8724;51.272;6.554;2023-03-18T08:50:33;8.70;;;6.50;;
4700;SDS011;8724;51.272;6.554;2023-03-18T08:53:03;4.70;;;3.97;;
4700;SDS011;8724;51.272;6.554;2023-03-18T08:55:33;5.83;;;4.57;;
4700;SDS011;8724;51.272;6.554;2023-03-18T08:58:04;4.77;;;4.20;;
4700;SDS011;8724;51.272;6.554;2023-03-18T09:00:34;4.10;;;3.03;;
4700;SDS011;8724;51.272;6.554;2023-03-18T09:03:04;6.07;;;2.97;;
4700;SDS011;8724;51.272;6.554;2023-03-18T09:05:34;3.33;;;2.60;;
4700;SDS011;8724;51.272;6.554;2023-03-18T09:08:05;2.27;;;2.03;;
4700;SDS011;8724;51.272;6.554;2023-03-18T09:10:34;2.30;;;2.00;;
4700;SDS011;8724;51.272;6.554;2023-03-18T09:13:02;2.73;;;2.40;;
4700;SDS011;8724;51.272;6.554;2023-03-18T09:15:31;2.37;;;2.00;;
4700;SDS011;8724;51.272;6.554;2023-03-18T09:18:00;2.20;;;2.00;;
4700;SDS011;8724;51.272;6.554;2023-03-18T09:20:38;2.03;;;1.83;;
4700;SDS011;8724;51.272;6.554;2023-03-18T09:23:08;2.67;;;2.30;;
4700;SDS011;8724;51.272;6.554;2023-03-18T09:25:38;2.40;;;1.77;;
4700;SDS011;8724;51.272;6.554;2023-03-18T09:28:08;2.57;;;1.80;;
4700;SDS011;8724;51.272;6.554;2023-03-18T09:30:36;2.57;;;2.30;;
4700;SDS011;8724;51.272;6.554;2023-03-18T09:33:05;4.30;;;2.13;;
4700;SDS011;8724;51.272;6.554;2023-03-18T09:35:35;2.13;;;2.00;;
4700;SDS011;8724;51.272;6.554;2023-03-18T09:38:03;2.00;;;1.77;;
4700;SDS011;8724;51.272;6.554;2023-03-18T09:40:34;2.63;;;1.60;;
4700;SDS011;8724;51.272;6.554;2023-03-18T09:43:09;2.40;;;1.67;;
4700;SDS011;8724;51.272;6.554;2023-03-18T09:45:52;2.60;;;1.87;;
4700;SDS011;8724;51.272;6.554;2023-03-18T09:48:34;1.93;;;1.70;;
4700;SDS011;8724;51.272;6.554;2023-03-18T09:51:16;2.47;;;1.73;;
4700;SDS011;8724;51.272;6.554;2023-03-18T09:53:56;1.77;;;1.60;;
4700;SDS011;8724;51.272;6.554;2023-03-18T09:56:30;1.53;;;1.43;;
4700;SDS011;8724;51.272;6.554;2023-03-18T09:59:05;6.33;;;1.67;;
4700;SDS011;8724;51.272;6.554;2023-03-18T10:01:42;5.50;;;1.40;;
4700;SDS011;8724;51.272;6.554;2023-03-18T10:04:14;2.50;;;1.73;;
4700;SDS011;8724;51.272;6.554;2023-03-18T10:06:47;2.13;;;1.70;;
4700;SDS011;8724;51.272;6.554;2023-03-18T10:09:22;2.00;;;1.83;;
4700;SDS011;8724;51.272;6.554;2023-03-18T10:11:57;2.23;;;1.90;;
4700;SDS011;8724;51.272;6.554;2023-03-18T10:14:34;1.50;;;1.40;;
4700;SDS011;8724;51.272;6.554;2023-03-18T10:17:13;1.60;;;1.50;;
4700;SDS011;8724;51.272;6.554;2023-03-18T10:19:47;1.40;;;1.30;;
4700;SDS011;8724;51.272;6.554;2023-03-18T10:22:24;2.10;;;1.83;;
4700;SDS011;8724;51.272;6.554;2023-03-18T10:25:15;10.10;;;8.27;;
4700;SDS011;8724;51.272;6.554;2023-03-18T10:27:55;13.73;;;9.17;;
4700;SDS011;8724;51.272;6.554;2023-03-18T10:30:42;8.70;;;7.27;;
4700;SDS011;8724;51.272;6.554;2023-03-18T10:33:24;6.50;;;5.77;;
4700;SDS011;8724;51.272;6.554;2023-03-18T10:36:04;5.20;;;4.70;;
4700;SDS011;8724;51.272;6.554;2023-03-18T10:38:39;5.50;;;3.97;;
4700;SDS011;8724;51.272;6.554;2023-03-18T10:41:13;4.27;;;3.87;;
4700;SDS011;8724;51.272;6.554;2023-03-18T10:43:46;2.97;;;2.33;;
4700;SDS011;8724;51.272;6.554;2023-03-18T10:46:17;2.83;;;2.17;;
4700;SDS011;8724;51.272;6.554;2023-03-18T10:48:49;3.53;;;2.20;;
4700;SDS011;8724;51.272;6.554;2023-03-18T10:51:23;2.73;;;2.53;;
4700;SDS011;8724;51.272;6.554;2023-03-18T10:53:57;2.23;;;2.03;;
4700;SDS011;8724;51.272;6.554;2023-03-18T10:56:31;2.23;;;1.50;;
4700;SDS011;8724;51.272;6.554;2023-03-18T10:59:07;2.97;;;2.20;;
4700;SDS011;8724;51.272;6.554;2023-03-18T11:01:41;1.83;;;1.30;;
4700;SDS011;8724;51.272;6.554;2023-03-18T11:04:13;2.70;;;1.80;;
4700;SDS011;8724;51.272;6.554;2023-03-18T11:06:45;3.37;;;1.67;;
4700;SDS011;8724;51.272;6.554;2023-03-18T11:09:17;2.27;;;1.30;;
4700;SDS011;8724;51.272;6.554;2023-03-18T11:11:48;1.87;;;1.50;;
4700;SDS011;8724;51.272;6.554;2023-03-18T11:14:19;2.20;;;1.90;;
4700;SDS011;8724;51.272;6.554;2023-03-18T11:16:55;2.20;;;1.67;;
4700;SDS011;8724;51.272;6.554;2023-03-18T11:19:29;1.80;;;1.40;;
4700;SDS011;8724;51.272;6.554;2023-03-18T11:21:59;3.93;;;1.83;;
4700;SDS011;8724;51.272;6.554;2023-03-18T11:24:43;2.53;;;1.63;;
4700;SDS011;8724;51.272;6.554;2023-03-18T11:27:26;1.70;;;1.60;;
4700;SDS011;8724;51.272;6.554;2023-03-18T11:29:58;3.80;;;1.50;;
4700;SDS011;8724;51.272;6.554;2023-03-18T11:32:31;2.20;;;1.20;;
4700;SDS011;8724;51.272;6.554;2023-03-18T11:35:03;1.30;;;1.20;;
4700;SDS011;8724;51.272;6.554;2023-03-18T11:37:33;1.53;;;1.30;;
4700;SDS011;8724;51.272;6.554;2023-03-18T11:40:14;1.50;;;1.40;;
4700;SDS011;8724;51.272;6.554;2023-03-18T11:42:46;2.80;;;2.60;;
4700;SDS011;8724;51.272;6.554;2023-03-18T11:45:26;15.37;;;10.93;;
4700;SDS011;8724;51.272;6.554;2023-03-18T11:48:08;14.40;;;9.87;;
4700;SDS011;8724;51.272;6.554;2023-03-18T11:50:43;6.40;;;5.40;;
4700;SDS011;8724;51.272;6.554;2023-03-18T11:53:25;3.10;;;2.80;;
4700;SDS011;8724;51.272;6.554;2023-03-18T11:56:00;4.10;;;2.40;;
4700;SDS011;8724;51.272;6.554;2023-03-18T12:01:34;2.70;;;2.00;;
4700;SDS011;8724;51.272;6.554;2023-03-18T12:04:18;1.70;;;1.30;;
4700;SDS011;8724;51.272;6.554;2023-03-18T12:07:03;1.80;;;1.70;;
4700;SDS011;8724;51.272;6.554;2023-03-18T12:09:43;3.80;;;1.50;;
4700;SDS011;8724;51.272;6.554;2023-03-18T12:12:27;2.80;;;1.40;;
4700;SDS011;8724;51.272;6.554;2023-03-18T12:15:10;1.63;;;1.20;;
4700;SDS011;8724;51.272;6.554;2023-03-18T12:17:52;4.00;;;1.60;;
4700;SDS011;8724;51.272;6.554;2023-03-18T12:20:35;2.13;;;1.40;;
4700;SDS011;8724;51.272;6.554;2023-03-18T12:23:25;1.20;;;1.03;;
4700;SDS011;8724;51.272;6.554;2023-03-18T12:26:05;2.07;;;1.40;;
4700;SDS011;8724;51.272;6.554;2023-03-18T12:28:44;2.07;;;1.33;;
4700;SDS011;8724;51.272;6.554;2023-03-18T12:34:22;1.83;;;1.57;;
4700;SDS011;8724;51.272;6.554;2023-03-18T12:37:04;1.33;;;1.20;;
4700;SDS011;8724;51.272;6.554;2023-03-18T12:40:00;1.57;;;1.30;;
4700;SDS011;8724;51.272;6.554;2023-03-18T12:42:43;1.30;;;1.20;;
4700;SDS011;8724;51.272;6.554;2023-03-18T12:45:22;1.13;;;1.07;;
4700;SDS011;8724;51.272;6.554;2023-03-18T12:47:53;1.37;;;1.20;;
4700;SDS011;8724;51.272;6.554;2023-03-18T12:50:30;1.47;;;1.13;;
4700;SDS011;8724;51.272;6.554;2023-03-18T12:53:05;8.63;;;7.73;;
4700;SDS011;8724;51.272;6.554;2023-03-18T12:55:42;16.47;;;13.90;;
4700;SDS011;8724;51.272;6.554;2023-03-18T12:58:15;12.43;;;10.60;;
4700;SDS011;8724;51.272;6.554;2023-03-18T13:00:46;11.60;;;9.67;;
4700;SDS011;8724;51.272;6.554;2023-03-18T13:03:22;8.00;;;7.20;;
4700;SDS011;8724;51.272;6.554;2023-03-18T13:05:58;7.57;;;6.53;;
4700;SDS011;8724;51.272;6.554;2023-03-18T13:08:39;6.03;;;5.33;;
4700;SDS011;8724;51.272;6.554;2023-03-18T13:11:24;4.17;;;3.77;;
4700;SDS011;8724;51.272;6.554;2023-03-18T13:13:59;3.70;;;3.40;;
4700;SDS011;8724;51.272;6.554;2023-03-18T13:16:31;3.90;;;3.30;;
4700;SDS011;8724;51.272;6.554;2023-03-18T13:19:02;2.60;;;2.40;;
4700;SDS011;8724;51.272;6.554;2023-03-18T13:21:34;2.50;;;2.30;;
4700;SDS011;8724;51.272;6.554;2023-03-18T13:24:21;2.43;;;2.23;;
4700;SDS011;8724;51.272;6.554;2023-03-18T13:27:16;3.50;;;2.13;;
4700;SDS011;8724;51.272;6.554;2023-03-18T13:29:56;2.50;;;2.10;;
4700;SDS011;8724;51.272;6.554;2023-03-18T13:32:41;1.83;;;1.73;;
4700;SDS011;8724;51.272;6.554;2023-03-18T13:35:47;1.83;;;1.73;;
4700;SDS011;8724;51.272;6.554;2023-03-18T13:38:39;2.63;;;1.70;;
4700;SDS011;8724;51.272;6.554;2023-03-18T13:41:30;2.03;;;1.57;;
4700;SDS011;8724;51.272;6.554;2023-03-18T13:44:08;2.60;;;1.93;;
4700;SDS011;8724;51.272;6.554;2023-03-18T13:46:42;2.90;;;2.23;;
4700;SDS011;8724;51.272;6.554;2023-03-18T13:49:20;2.80;;;2.00;;
4700;SDS011;8724;51.272;6.554;2023-03-18T13:51:53;2.20;;;2.00;;
4700;SDS011;8724;51.272;6.554;2023-03-18T13:54:27;5.20;;;1.70;;
4700;SDS011;8724;51.272;6.554;2023-03-18T13:57:17;1.70;;;1.30;;
4700;SDS011;8724;51.272;6.554;2023-03-18T14:00:22;2.70;;;1.20;;
4700;SDS011;8724;51.272;6.554;2023-03-18T14:03:13;1.80;;;1.43;;
4700;SDS011;8724;51.272;6.554;2023-03-18T14:05:49;1.73;;;1.27;;
4700;SDS011;8724;51.272;6.554;2023-03-18T14:17:40;1.00;;;1.00;;
4700;SDS011;8724;51.272;6.554;2023-03-18T14:20:19;2.17;;;0.90;;
4700;SDS011;8724;51.272;6.554;2023-03-18T14:26:03;13.70;;;8.90;;
4700;SDS011;8724;51.272;6.554;2023-03-18T14:28:38;11.20;;;7.90;;
4700;SDS011;8724;51.272;6.554;2023-03-18T14:31:13;9.30;;;6.27;;
4700;SDS011;8724;51.272;6.554;2023-03-18T14:34:03;6.07;;;4.80;;
4700;SDS011;8724;51.272;6.554;2023-03-18T14:39:45;4.40;;;3.57;;
4700;SDS011;8724;51.272;6.554;2023-03-18T14:42:36;3.23;;;2.70;;
4700;SDS011;8724;51.272;6.554;2023-03-18T14:45:14;2.13;;;1.93;;
4700;SDS011;8724;51.272;6.554;2023-03-18T14:47:47;1.63;;;1.50;;
4700;SDS011;8724;51.272;6.554;2023-03-18T14:50:27;1.63;;;1.53;;
4700;SDS011;8724;51.272;6.554;2023-03-18T14:53:01;1.30;;;1.20;;
4700;SDS011;8724;51.272;6.554;2023-03-18T14:55:33;2.20;;;1.50;;
4700;SDS011;8724;51.272;6.554;2023-03-18T14:58:09;1.00;;;0.97;;
4700;SDS011;8724;51.272;6.554;2023-03-18T15:00:45;1.50;;;1.40;;
4700;SDS011;8724;51.272;6.554;2023-03-18T15:03:15;3.17;;;1.27;;
4700;SDS011;8724;51.272;6.554;2023-03-18T15:05:48;2.30;;;1.37;;
4700;SDS011;8724;51.272;6.554;2023-03-18T15:08:19;1.90;;;1.30;;
4700;SDS011;8724;51.272;6.554;2023-03-18T15:10:53;1.53;;;1.23;;
4700;SDS011;8724;51.272;6.554;2023-03-18T15:13:24;1.77;;;1.20;;
4700;SDS011;8724;51.272;6.554;2023-03-18T15:15:54;1.40;;;1.23;;
4700;SDS011;8724;51.272;6.554;2023-03-18T15:18:24;2.73;;;1.57;;
4700;SDS011;8724;51.272;6.554;2023-03-18T15:20:56;2.50;;;1.17;;
4700;SDS011;8724;51.272;6.554;2023-03-18T15:23:28;1.57;;;0.90;;
4700;SDS011;8724;51.272;6.554;2023-03-18T15:25:59;1.17;;;1.00;;
4700;SDS011;8724;51.272;6.554;2023-03-18T15:28:29;1.70;;;1.60;;
4700;SDS011;8724;51.272;6.554;2023-03-18T15:31:00;2.20;;;1.23;;
4700;SDS011;8724;51.272;6.554;2023-03-18T15:33:33;9.97;;;7.30;;
4700;SDS011;8724;51.272;6.554;2023-03-18T15:36:04;17.37;;;13.90;;
4700;SDS011;8724;51.272;6.554;2023-03-18T15:38:33;12.03;;;10.70;;
4700;SDS011;8724;51.272;6.554;2023-03-18T15:41:02;10.30;;;8.43;;
4700;SDS011;8724;51.272;6.554;2023-03-18T15:43:37;7.47;;;6.70;;
4700;SDS011;8724;51.272;6.554;2023-03-18T15:46:14;7.23;;;5.70;;
4700;SDS011;8724;51.272;6.554;2023-03-18T15:48:45;5.00;;;4.50;;
4700;SDS011;8724;51.272;6.554;2023-03-18T15:51:24;4.30;;;3.90;;
4700;SDS011;8724;51.272;6.554;2023-03-18T15:53:56;4.53;;;3.90;;
4700;SDS011;8724;51.272;6.554;2023-03-18T15:56:25;3.43;;;3.00;;
4700;SDS011;8724;51.272;6.554;2023-03-18T15:58:57;2.93;;;2.57;;
4700;SDS011;8724;51.272;6.554;2023-03-18T16:01:33;2.17;;;2.00;;
4700;SDS011;8724;51.272;6.554;2023-03-18T16:04:03;2.30;;;2.10;;
4700;SDS011;8724;51.272;6.554;2023-03-18T16:06:33;1.90;;;1.80;;
4700;SDS011;8724;51.272;6.554;2023-03-18T16:09:11;3.63;;;1.80;;
4700;SDS011;8724;51.272;6.554;2023-03-18T16:11:41;1.93;;;1.70;;